Archival Weather

Chicago O'Hare International

Chicago, Illinois (KORD)

Report from: Monday, December 12, 2022 4:51 PM CST
Current time: Friday, June 21, 2024 3:44 AM CDT

Current weather – Weather history – Daily summaries
Weather forecast

Temperature3.9°C (39.0°F)
Wind chill0.4°C (32.8°F)
Dew point-2.2°C (28.0°F)
Winds 8 kts (4.1 m/s, 9.2 mph) East-Southeast (110°)
Visibility10 mi. (16.1 km)
Clouds Ceiling: Overcast 2,900 ft. (884 m)
Altimeter30.27 in.Hg (1025 mB)
Relative humidity64 %
Density altitude-1,679 ft. (-512 m)
Sea-level pressure102.6 kPa (1026 mB, 30.28 in.Hg)
Remarks Automated weather observing station with precipitation discriminator
Flight conditions Marginal Visual Meteorological Conditions
Raw dataKORD 122251Z 11008KT 10SM OVC029 04/M02 A3027 RMK AO2 SLP255 T00391022
An error has occurred. This application may no longer respond until reloaded. Reload 🗙